sensor_id;sensor_type;location;lat;lon;timestamp;P1;durP1;ratioP1;P2;durP2;ratioP2
41556;SDS011;27720;51.992;5.890;2024-03-22T10:24:59;26.52;;;10.05;;
41556;SDS011;27720;51.992;5.890;2024-03-22T10:27:28;29.52;;;11.85;;
41556;SDS011;27720;51.992;5.890;2024-03-22T10:29:54;28.17;;;11.70;;
41556;SDS011;27720;51.992;5.890;2024-03-22T10:32:21;22.38;;;10.50;;
41556;SDS011;27720;51.992;5.890;2024-03-22T10:34:48;30.15;;;11.27;;
41556;SDS011;27720;51.992;5.890;2024-03-22T10:37:16;23.95;;;10.32;;
41556;SDS011;27720;51.992;5.890;2024-03-22T10:39:45;21.70;;;10.73;;
41556;SDS011;27720;51.992;5.890;2024-03-22T10:42:13;21.60;;;10.00;;
41556;SDS011;27720;51.992;5.890;2024-03-22T10:44:40;23.38;;;10.20;;
41556;SDS011;27720;51.992;5.890;2024-03-22T10:47:06;21.35;;;9.27;;
41556;SDS011;27720;51.992;5.890;2024-03-22T10:49:36;18.15;;;8.50;;
41556;SDS011;27720;51.992;5.890;2024-03-22T10:52:03;25.23;;;10.73;;
41556;SDS011;27720;51.992;5.890;2024-03-22T10:54:35;20.58;;;9.40;;
41556;SDS011;27720;51.992;5.890;2024-03-22T10:57:05;19.33;;;8.88;;
41556;SDS011;27720;51.992;5.890;2024-03-22T10:59:36;18.75;;;8.07;;
41556;SDS011;27720;51.992;5.890;2024-03-22T11:02:05;17.90;;;8.43;;
41556;SDS011;27720;51.992;5.890;2024-03-22T11:04:32;20.67;;;11.00;;
41556;SDS011;27720;51.992;5.890;2024-03-22T11:06:58;14.65;;;7.53;;
41556;SDS011;27720;51.992;5.890;2024-03-22T11:09:25;17.20;;;8.85;;
41556;SDS011;27720;51.992;5.890;2024-03-22T11:11:52;15.30;;;8.15;;
41556;SDS011;27720;51.992;5.890;2024-03-22T11:14:19;17.70;;;7.30;;
41556;SDS011;27720;51.992;5.890;2024-03-22T11:16:50;10.25;;;5.35;;
41556;SDS011;27720;51.992;5.890;2024-03-22T11:19:16;12.95;;;6.65;;
41556;SDS011;27720;51.992;5.890;2024-03-22T11:21:45;16.20;;;7.57;;
41556;SDS011;27720;51.992;5.890;2024-03-22T11:24:10;14.93;;;7.03;;
41556;SDS011;27720;51.992;5.890;2024-03-22T11:26:36;14.93;;;6.57;;
41556;SDS011;27720;51.992;5.890;2024-03-22T11:29:02;16.83;;;6.85;;
41556;SDS011;27720;51.992;5.890;2024-03-22T11:31:28;15.35;;;7.13;;
41556;SDS011;27720;51.992;5.890;2024-03-22T11:33:54;11.68;;;5.75;;
41556;SDS011;27720;51.992;5.890;2024-03-22T11:36:21;11.02;;;6.30;;
41556;SDS011;27720;51.992;5.890;2024-03-22T11:38:47;12.52;;;5.88;;
41556;SDS011;27720;51.992;5.890;2024-03-22T11:41:16;12.52;;;4.35;;
41556;SDS011;27720;51.992;5.890;2024-03-22T11:43:43;14.52;;;5.95;;
41556;SDS011;27720;51.992;5.890;2024-03-22T11:46:10;9.45;;;5.07;;
41556;SDS011;27720;51.992;5.890;2024-03-22T11:48:40;10.35;;;5.28;;
41556;SDS011;27720;51.992;5.890;2024-03-22T11:51:07;12.55;;;5.50;;
41556;SDS011;27720;51.992;5.890;2024-03-22T11:53:34;9.10;;;4.25;;
41556;SDS011;27720;51.992;5.890;2024-03-22T11:56:00;8.88;;;4.32;;
41556;SDS011;27720;51.992;5.890;2024-03-22T11:58:29;7.55;;;4.22;;
41556;SDS011;27720;51.992;5.890;2024-03-22T12:00:58;9.18;;;4.25;;
41556;SDS011;27720;51.992;5.890;2024-03-22T12:03:24;6.53;;;3.47;;
41556;SDS011;27720;51.992;5.890;2024-03-22T12:05:53;7.43;;;4.15;;
41556;SDS011;27720;51.992;5.890;2024-03-22T12:08:20;8.45;;;4.35;;
41556;SDS011;27720;51.992;5.890;2024-03-22T12:10:45;7.15;;;3.53;;
41556;SDS011;27720;51.992;5.890;2024-03-22T12:13:11;6.40;;;3.13;;
41556;SDS011;27720;51.992;5.890;2024-03-22T12:15:37;5.57;;;3.40;;
41556;SDS011;27720;51.992;5.890;2024-03-22T12:18:03;5.97;;;3.53;;
41556;SDS011;27720;51.992;5.890;2024-03-22T12:20:28;5.68;;;2.67;;
41556;SDS011;27720;51.992;5.890;2024-03-22T12:22:54;9.95;;;3.67;;
41556;SDS011;27720;51.992;5.890;2024-03-22T12:25:20;5.93;;;2.67;;
41556;SDS011;27720;51.992;5.890;2024-03-22T12:27:46;6.75;;;3.22;;
41556;SDS011;27720;51.992;5.890;2024-03-22T12:30:12;7.53;;;4.15;;
41556;SDS011;27720;51.992;5.890;2024-03-22T12:32:38;4.13;;;2.38;;
41556;SDS011;27720;51.992;5.890;2024-03-22T12:35:04;6.47;;;3.22;;
41556;SDS011;27720;51.992;5.890;2024-03-22T12:37:30;4.90;;;2.88;;
41556;SDS011;27720;51.992;5.890;2024-03-22T12:39:56;4.80;;;2.63;;
41556;SDS011;27720;51.992;5.890;2024-03-22T12:42:24;7.07;;;3.20;;
41556;SDS011;27720;51.992;5.890;2024-03-22T12:44:50;6.18;;;3.38;;
41556;SDS011;27720;51.992;5.890;2024-03-22T12:47:16;6.07;;;2.85;;
41556;SDS011;27720;51.992;5.890;2024-03-22T12:49:44;5.00;;;2.67;;
41556;SDS011;27720;51.992;5.890;2024-03-22T12:52:10;5.05;;;2.95;;
41556;SDS011;27720;51.992;5.890;2024-03-22T12:54:36;5.22;;;3.13;;
41556;SDS011;27720;51.992;5.890;2024-03-22T12:57:04;6.10;;;3.25;;
41556;SDS011;27720;51.992;5.890;2024-03-22T12:59:30;3.95;;;2.45;;
41556;SDS011;27720;51.992;5.890;2024-03-22T13:01:55;4.80;;;2.33;;
41556;SDS011;27720;51.992;5.890;2024-03-22T13:04:21;3.53;;;2.20;;
41556;SDS011;27720;51.992;5.890;2024-03-22T13:06:48;4.72;;;2.58;;
41556;SDS011;27720;51.992;5.890;2024-03-22T13:09:14;3.92;;;2.05;;
41556;SDS011;27720;51.992;5.890;2024-03-22T13:11:41;5.10;;;2.85;;
41556;SDS011;27720;51.992;5.890;2024-03-22T13:14:07;3.70;;;2.35;;
41556;SDS011;27720;51.992;5.890;2024-03-22T13:16:32;3.78;;;2.20;;
41556;SDS011;27720;51.992;5.890;2024-03-22T13:18:59;3.70;;;2.00;;
41556;SDS011;27720;51.992;5.890;2024-03-22T13:21:24;4.63;;;2.38;;
41556;SDS011;27720;51.992;5.890;2024-03-22T13:23:50;4.43;;;1.88;;
41556;SDS011;27720;51.992;5.890;2024-03-22T13:26:16;1.98;;;1.35;;
41556;SDS011;27720;51.992;5.890;2024-03-22T13:28:42;3.88;;;1.60;;
41556;SDS011;27720;51.992;5.890;2024-03-22T13:31:08;2.30;;;1.38;;
41556;SDS011;27720;51.992;5.890;2024-03-22T13:33:34;3.25;;;1.30;;
41556;SDS011;27720;51.992;5.890;2024-03-22T13:36:00;2.53;;;1.60;;
41556;SDS011;27720;51.992;5.890;2024-03-22T13:38:26;4.28;;;2.00;;
41556;SDS011;27720;51.992;5.890;2024-03-22T13:40:57;3.53;;;1.55;;
41556;SDS011;27720;51.992;5.890;2024-03-22T13:43:27;2.50;;;1.50;;
41556;SDS011;27720;51.992;5.890;2024-03-22T13:45:55;2.30;;;1.42;;
41556;SDS011;27720;51.992;5.890;2024-03-22T13:48:22;6.72;;;2.25;;
41556;SDS011;27720;51.992;5.890;2024-03-22T13:50:52;3.80;;;2.13;;
41556;SDS011;27720;51.992;5.890;2024-03-22T13:53:19;2.25;;;1.42;;
41556;SDS011;27720;51.992;5.890;2024-03-22T13:55:54;4.60;;;1.35;;
41556;SDS011;27720;51.992;5.890;2024-03-22T13:58:20;3.85;;;2.28;;
41556;SDS011;27720;51.992;5.890;2024-03-22T14:00:46;4.18;;;1.45;;
41556;SDS011;27720;51.992;5.890;2024-03-22T14:03:11;4.63;;;1.55;;
41556;SDS011;27720;51.992;5.890;2024-03-22T14:05:37;3.28;;;1.85;;
41556;SDS011;27720;51.992;5.890;2024-03-22T14:08:05;4.28;;;2.08;;
41556;SDS011;27720;51.992;5.890;2024-03-22T14:10:31;3.50;;;1.80;;
41556;SDS011;27720;51.992;5.890;2024-03-22T14:12:57;6.20;;;2.22;;
41556;SDS011;27720;51.992;5.890;2024-03-22T14:15:23;3.25;;;1.77;;
41556;SDS011;27720;51.992;5.890;2024-03-22T14:17:54;3.80;;;1.85;;
41556;SDS011;27720;51.992;5.890;2024-03-22T14:20:20;3.63;;;1.58;;
41556;SDS011;27720;51.992;5.890;2024-03-22T14:22:46;6.45;;;1.92;;
41556;SDS011;27720;51.992;5.890;2024-03-22T14:25:13;2.45;;;1.52;;
41556;SDS011;27720;51.992;5.890;2024-03-22T14:27:39;4.53;;;1.63;;
41556;SDS011;27720;51.992;5.890;2024-03-22T14:30:05;3.55;;;1.67;;
41556;SDS011;27720;51.992;5.890;2024-03-22T14:32:33;6.47;;;1.80;;
41556;SDS011;27720;51.992;5.890;2024-03-22T14:34:59;4.47;;;1.77;;
41556;SDS011;27720;51.992;5.890;2024-03-22T14:37:26;4.00;;;2.20;;
41556;SDS011;27720;51.992;5.890;2024-03-22T14:39:52;6.20;;;2.00;;
41556;SDS011;27720;51.992;5.890;2024-03-22T14:42:20;3.10;;;1.25;;
41556;SDS011;27720;51.992;5.890;2024-03-22T14:44:46;2.63;;;1.23;;
41556;SDS011;27720;51.992;5.890;2024-03-22T14:47:12;3.42;;;1.92;;
41556;SDS011;27720;51.992;5.890;2024-03-22T14:49:37;4.88;;;1.98;;
41556;SDS011;27720;51.992;5.890;2024-03-22T14:52:04;6.72;;;2.08;;
41556;SDS011;27720;51.992;5.890;2024-03-22T14:54:40;4.15;;;1.70;;
41556;SDS011;27720;51.992;5.890;2024-03-22T14:57:06;3.97;;;2.00;;
41556;SDS011;27720;51.992;5.890;2024-03-22T14:59:32;4.00;;;1.80;;
41556;SDS011;27720;51.992;5.890;2024-03-22T15:01:58;8.07;;;2.13;;
41556;SDS011;27720;51.992;5.890;2024-03-22T15:04:25;6.68;;;1.90;;
41556;SDS011;27720;51.992;5.890;2024-03-22T15:06:51;4.32;;;2.10;;
41556;SDS011;27720;51.992;5.890;2024-03-22T15:09:19;8.80;;;2.10;;
41556;SDS011;27720;51.992;5.890;2024-03-22T15:11:46;3.75;;;1.90;;
41556;SDS011;27720;51.992;5.890;2024-03-22T15:14:12;7.00;;;2.15;;
41556;SDS011;27720;51.992;5.890;2024-03-22T15:16:38;7.97;;;2.00;;
41556;SDS011;27720;51.992;5.890;2024-03-22T15:19:04;4.97;;;2.20;;
41556;SDS011;27720;51.992;5.890;2024-03-22T15:21:30;4.93;;;2.20;;
41556;SDS011;27720;51.992;5.890;2024-03-22T15:24:00;6.03;;;2.45;;
41556;SDS011;27720;51.992;5.890;2024-03-22T15:26:26;5.13;;;1.92;;
41556;SDS011;27720;51.992;5.890;2024-03-22T15:28:51;5.78;;;2.60;;
41556;SDS011;27720;51.992;5.890;2024-03-22T15:31:17;4.57;;;1.58;;
41556;SDS011;27720;51.992;5.890;2024-03-22T15:33:43;5.93;;;2.40;;
41556;SDS011;27720;51.992;5.890;2024-03-22T15:36:08;5.15;;;2.08;;
41556;SDS011;27720;51.992;5.890;2024-03-22T15:38:34;4.28;;;2.42;;
41556;SDS011;27720;51.992;5.890;2024-03-22T15:41:00;6.72;;;2.67;;
41556;SDS011;27720;51.992;5.890;2024-03-22T15:43:26;8.95;;;2.53;;
41556;SDS011;27720;51.992;5.890;2024-03-22T15:45:51;4.43;;;2.53;;
41556;SDS011;27720;51.992;5.890;2024-03-22T15:48:17;4.55;;;1.77;;
41556;SDS011;27720;51.992;5.890;2024-03-22T15:50:48;6.75;;;2.58;;
41556;SDS011;27720;51.992;5.890;2024-03-22T15:53:15;6.05;;;3.60;;
41556;SDS011;27720;51.992;5.890;2024-03-22T15:55:41;2.88;;;1.55;;
41556;SDS011;27720;51.992;5.890;2024-03-22T15:58:07;4.85;;;2.72;;
41556;SDS011;27720;51.992;5.890;2024-03-22T16:00:33;7.75;;;2.72;;
41556;SDS011;27720;51.992;5.890;2024-03-22T16:03:01;6.55;;;2.58;;
41556;SDS011;27720;51.992;5.890;2024-03-22T16:05:27;8.38;;;2.97;;
41556;SDS011;27720;51.992;5.890;2024-03-22T16:07:53;5.55;;;2.42;;
41556;SDS011;27720;51.992;5.890;2024-03-22T16:10:18;5.35;;;2.60;;
41556;SDS011;27720;51.992;5.890;2024-03-22T16:12:44;6.03;;;1.95;;
41556;SDS011;27720;51.992;5.890;2024-03-22T16:15:10;5.85;;;2.97;;
41556;SDS011;27720;51.992;5.890;2024-03-22T16:17:36;4.88;;;2.40;;
41556;SDS011;27720;51.992;5.890;2024-03-22T16:20:01;7.25;;;3.45;;
41556;SDS011;27720;51.992;5.890;2024-03-22T16:22:28;9.55;;;2.47;;
41556;SDS011;27720;51.992;5.890;2024-03-22T16:24:57;4.03;;;2.13;;
41556;SDS011;27720;51.992;5.890;2024-03-22T16:27:22;3.63;;;1.65;;
41556;SDS011;27720;51.992;5.890;2024-03-22T16:29:49;6.93;;;2.65;;
41556;SDS011;27720;51.992;5.890;2024-03-22T16:32:15;12.73;;;3.72;;
41556;SDS011;27720;51.992;5.890;2024-03-22T16:34:41;7.18;;;2.90;;
41556;SDS011;27720;51.992;5.890;2024-03-22T16:37:06;6.32;;;2.22;;
41556;SDS011;27720;51.992;5.890;2024-03-22T16:39:32;6.43;;;3.35;;
41556;SDS011;27720;51.992;5.890;2024-03-22T16:42:00;7.43;;;2.78;;
41556;SDS011;27720;51.992;5.890;2024-03-22T16:44:27;8.32;;;3.83;;
41556;SDS011;27720;51.992;5.890;2024-03-22T16:46:53;11.35;;;3.15;;
41556;SDS011;27720;51.992;5.890;2024-03-22T16:49:19;9.23;;;3.38;;
41556;SDS011;27720;51.992;5.890;2024-03-22T16:51:44;6.30;;;2.75;;
41556;SDS011;27720;51.992;5.890;2024-03-22T16:54:10;5.80;;;2.42;;
41556;SDS011;27720;51.992;5.890;2024-03-22T16:56:36;9.60;;;2.72;;
41556;SDS011;27720;51.992;5.890;2024-03-22T16:59:02;5.47;;;2.75;;
41556;SDS011;27720;51.992;5.890;2024-03-22T17:01:27;11.27;;;2.42;;
41556;SDS011;27720;51.992;5.890;2024-03-22T17:03:54;10.77;;;2.42;;
41556;SDS011;27720;51.992;5.890;2024-03-22T17:06:19;5.70;;;2.28;;
41556;SDS011;27720;51.992;5.890;2024-03-22T17:08:45;8.07;;;1.98;;
41556;SDS011;27720;51.992;5.890;2024-03-22T17:11:11;8.20;;;1.77;;
41556;SDS011;27720;51.992;5.890;2024-03-22T17:13:37;9.32;;;2.08;;
41556;SDS011;27720;51.992;5.890;2024-03-22T17:16:03;7.20;;;2.15;;
41556;SDS011;27720;51.992;5.890;2024-03-22T17:18:29;6.65;;;1.98;;
41556;SDS011;27720;51.992;5.890;2024-03-22T17:20:55;6.55;;;1.98;;
41556;SDS011;27720;51.992;5.890;2024-03-22T17:23:20;3.97;;;2.08;;
41556;SDS011;27720;51.992;5.890;2024-03-22T17:25:46;4.28;;;1.30;;
41556;SDS011;27720;51.992;5.890;2024-03-22T17:28:12;7.85;;;2.95;;
41556;SDS011;27720;51.992;5.890;2024-03-22T17:30:37;11.90;;;1.60;;
41556;SDS011;27720;51.992;5.890;2024-03-22T17:33:03;11.55;;;2.25;;
41556;SDS011;27720;51.992;5.890;2024-03-22T17:35:29;9.55;;;1.77;;
41556;SDS011;27720;51.992;5.890;2024-03-22T17:37:58;7.18;;;1.40;;
41556;SDS011;27720;51.992;5.890;2024-03-22T17:40:24;11.25;;;1.50;;
41556;SDS011;27720;51.992;5.890;2024-03-22T17:42:50;7.70;;;1.60;;
41556;SDS011;27720;51.992;5.890;2024-03-22T17:45:16;6.10;;;1.48;;
41556;SDS011;27720;51.992;5.890;2024-03-22T17:47:42;7.63;;;1.80;;
41556;SDS011;27720;51.992;5.890;2024-03-22T17:50:08;5.82;;;1.45;;
41556;SDS011;27720;51.992;5.890;2024-03-22T17:52:35;7.10;;;1.83;;
41556;SDS011;27720;51.992;5.890;2024-03-22T17:55:01;7.70;;;1.70;;
41556;SDS011;27720;51.992;5.890;2024-03-22T17:57:27;4.65;;;1.75;;
41556;SDS011;27720;51.992;5.890;2024-03-22T17:59:53;5.50;;;1.95;;
41556;SDS011;27720;51.992;5.890;2024-03-22T18:02:19;4.75;;;1.60;;
41556;SDS011;27720;51.992;5.890;2024-03-22T18:04:45;9.52;;;1.95;;
41556;SDS011;27720;51.992;5.890;2024-03-22T18:07:11;6.47;;;1.50;;
41556;SDS011;27720;51.992;5.890;2024-03-22T18:09:37;8.00;;;2.03;;
41556;SDS011;27720;51.992;5.890;2024-03-22T18:12:02;3.65;;;1.50;;
41556;SDS011;27720;51.992;5.890;2024-03-22T18:14:30;3.90;;;1.75;;
41556;SDS011;27720;51.992;5.890;2024-03-22T18:16:56;6.10;;;1.80;;
41556;SDS011;27720;51.992;5.890;2024-03-22T18:19:21;5.32;;;1.45;;
41556;SDS011;27720;51.992;5.890;2024-03-22T18:21:47;10.75;;;1.92;;
41556;SDS011;27720;51.992;5.890;2024-03-22T18:24:14;8.10;;;1.80;;
41556;SDS011;27720;51.992;5.890;2024-03-22T18:26:44;9.13;;;2.00;;
41556;SDS011;27720;51.992;5.890;2024-03-22T18:29:09;5.53;;;1.27;;
41556;SDS011;27720;51.992;5.890;2024-03-22T18:31:35;6.50;;;1.95;;
41556;SDS011;27720;51.992;5.890;2024-03-22T18:34:02;11.07;;;2.13;;
41556;SDS011;27720;51.992;5.890;2024-03-22T18:36:28;7.18;;;1.63;;
41556;SDS011;27720;51.992;5.890;2024-03-22T18:38:55;11.27;;;2.22;;
41556;SDS011;27720;51.992;5.890;2024-03-22T18:41:24;3.90;;;1.27;;
41556;SDS011;27720;51.992;5.890;2024-03-22T18:43:50;7.82;;;2.22;;
41556;SDS011;27720;51.992;5.890;2024-03-22T18:46:16;8.20;;;2.38;;
41556;SDS011;27720;51.992;5.890;2024-03-22T18:48:45;10.00;;;2.17;;
41556;SDS011;27720;51.992;5.890;2024-03-22T18:51:11;9.23;;;2.47;;
41556;SDS011;27720;51.992;5.890;2024-03-22T18:53:39;7.57;;;2.05;;
41556;SDS011;27720;51.992;5.890;2024-03-22T18:56:05;6.28;;;2.13;;
41556;SDS011;27720;51.992;5.890;2024-03-22T18:58:33;4.97;;;2.22;;
41556;SDS011;27720;51.992;5.890;2024-03-22T19:00:58;5.95;;;2.38;;
41556;SDS011;27720;51.992;5.890;2024-03-22T19:03:25;5.35;;;2.33;;
41556;SDS011;27720;51.992;5.890;2024-03-22T19:05:50;5.75;;;2.05;;
41556;SDS011;27720;51.992;5.890;2024-03-22T19:08:19;14.73;;;2.72;;
41556;SDS011;27720;51.992;5.890;2024-03-22T19:10:45;4.20;;;1.80;;
41556;SDS011;27720;51.992;5.890;2024-03-22T19:13:11;16.67;;;2.45;;
41556;SDS011;27720;51.992;5.890;2024-03-22T19:15:37;9.30;;;2.65;;
41556;SDS011;27720;51.992;5.890;2024-03-22T19:18:06;6.35;;;2.53;;
41556;SDS011;27720;51.992;5.890;2024-03-22T19:20:32;9.30;;;2.47;;
41556;SDS011;27720;51.992;5.890;2024-03-22T19:22:58;11.80;;;2.55;;
41556;SDS011;27720;51.992;5.890;2024-03-22T19:25:23;9.70;;;2.20;;
41556;SDS011;27720;51.992;5.890;2024-03-22T19:27:52;6.57;;;2.13;;
41556;SDS011;27720;51.992;5.890;2024-03-22T19:30:18;10.38;;;2.30;;
41556;SDS011;27720;51.992;5.890;2024-03-22T19:32:48;7.13;;;2.17;;
41556;SDS011;27720;51.992;5.890;2024-03-22T19:35:14;9.95;;;2.70;;
41556;SDS011;27720;51.992;5.890;2024-03-22T19:37:40;10.63;;;2.40;;
41556;SDS011;27720;51.992;5.890;2024-03-22T19:40:06;10.43;;;2.65;;
41556;SDS011;27720;51.992;5.890;2024-03-22T19:42:32;6.90;;;2.00;;
41556;SDS011;27720;51.992;5.890;2024-03-22T19:44:57;7.80;;;3.10;;
41556;SDS011;27720;51.992;5.890;2024-03-22T19:47:23;7.65;;;2.72;;
41556;SDS011;27720;51.992;5.890;2024-03-22T19:49:49;12.38;;;2.38;;
41556;SDS011;27720;51.992;5.890;2024-03-22T19:52:15;9.57;;;2.97;;
41556;SDS011;27720;51.992;5.890;2024-03-22T19:54:41;14.82;;;2.33;;
41556;SDS011;27720;51.992;5.890;2024-03-22T19:57:07;7.30;;;2.38;;
41556;SDS011;27720;51.992;5.890;2024-03-22T19:59:33;6.65;;;2.33;;
41556;SDS011;27720;51.992;5.890;2024-03-22T20:01:58;6.78;;;2.05;;
41556;SDS011;27720;51.992;5.890;2024-03-22T20:04:24;7.03;;;2.20;;
41556;SDS011;27720;51.992;5.890;2024-03-22T20:06:53;13.20;;;4.47;;
41556;SDS011;27720;51.992;5.890;2024-03-22T20:09:18;6.68;;;2.88;;
